sensor_id;sensor_type;location;lat;lon;timestamp;temperature;humidity
64032;DHT22;50278;47.796;11.968;2023-02-01T00:01:59;5.13;8.47
64032;DHT22;50278;47.796;11.968;2023-02-01T00:04:25;5.00;9.08
64032;DHT22;50278;47.796;11.968;2023-02-01T00:06:51;5.03;8.82
64032;DHT22;50278;47.796;11.968;2023-02-01T00:09:16;4.97;8.34
64032;DHT22;50278;47.796;11.968;2023-02-01T00:11:41;4.96;8.68
64032;DHT22;50278;47.796;11.968;2023-02-01T00:14:07;4.83;10.25
64032;DHT22;50278;47.796;11.968;2023-02-01T00:16:33;4.91;9.25
64032;DHT22;50278;47.796;11.968;2023-02-01T00:19:01;4.78;11.10
64032;DHT22;50278;47.796;11.968;2023-02-01T00:21:27;4.75;11.95
64032;DHT22;50278;47.796;11.968;2023-02-01T00:23:52;4.77;11.17
64032;DHT22;50278;47.796;11.968;2023-02-01T00:26:37;4.81;10.99
64032;DHT22;50278;47.796;11.968;2023-02-01T00:29:04;4.96;10.98
64032;DHT22;50278;47.796;11.968;2023-02-01T00:31:29;4.87;13.03
64032;DHT22;50278;47.796;11.968;2023-02-01T00:33:55;4.86;12.37
64032;DHT22;50278;47.796;11.968;2023-02-01T00:36:20;4.90;13.00
64032;DHT22;50278;47.796;11.968;2023-02-01T00:38:46;4.90;12.55
64032;DHT22;50278;47.796;11.968;2023-02-01T00:41:12;4.89;12.68
64032;DHT22;50278;47.796;11.968;2023-02-01T00:43:38;4.81;13.36
64032;DHT22;50278;47.796;11.968;2023-02-01T00:46:04;4.95;12.78
64032;DHT22;50278;47.796;11.968;2023-02-01T00:48:29;5.05;11.57
64032;DHT22;50278;47.796;11.968;2023-02-01T00:50:59;5.04;11.49
64032;DHT22;50278;47.796;11.968;2023-02-01T00:53:24;5.00;12.77
64032;DHT22;50278;47.796;11.968;2023-02-01T00:55:49;5.05;11.65
64032;DHT22;50278;47.796;11.968;2023-02-01T00:58:15;5.01;11.76
64032;DHT22;50278;47.796;11.968;2023-02-01T01:00:40;5.01;11.80
64032;DHT22;50278;47.796;11.968;2023-02-01T01:03:06;4.88;13.20
64032;DHT22;50278;47.796;11.968;2023-02-01T01:05:46;4.64;14.75
64032;DHT22;50278;47.796;11.968;2023-02-01T01:08:12;4.79;13.97
64032;DHT22;50278;47.796;11.968;2023-02-01T01:10:37;4.83;12.28
64032;DHT22;50278;47.796;11.968;2023-02-01T01:13:03;4.79;13.70
64032;DHT22;50278;47.796;11.968;2023-02-01T01:15:28;4.75;13.35
64032;DHT22;50278;47.796;11.968;2023-02-01T01:17:54;4.52;14.67
64032;DHT22;50278;47.796;11.968;2023-02-01T01:20:19;4.42;15.10
64032;DHT22;50278;47.796;11.968;2023-02-01T01:22:47;4.43;14.54
64032;DHT22;50278;47.796;11.968;2023-02-01T01:25:12;4.39;14.60
64032;DHT22;50278;47.796;11.968;2023-02-01T01:27:38;4.39;14.28
64032;DHT22;50278;47.796;11.968;2023-02-01T01:30:03;4.47;13.91
64032;DHT22;50278;47.796;11.968;2023-02-01T01:32:29;4.49;14.73
64032;DHT22;50278;47.796;11.968;2023-02-01T01:34:54;4.37;14.80
64032;DHT22;50278;47.796;11.968;2023-02-01T01:37:19;4.46;13.66
64032;DHT22;50278;47.796;11.968;2023-02-01T01:39:45;4.47;14.00
64032;DHT22;50278;47.796;11.968;2023-02-01T01:42:11;4.52;13.42
64032;DHT22;50278;47.796;11.968;2023-02-01T01:47:21;4.66;12.55
64032;DHT22;50278;47.796;11.968;2023-02-01T01:49:47;4.68;12.24
64032;DHT22;50278;47.796;11.968;2023-02-01T01:52:12;4.63;13.91
64032;DHT22;50278;47.796;11.968;2023-02-01T01:54:40;4.88;11.51
64032;DHT22;50278;47.796;11.968;2023-02-01T01:57:24;4.87;11.70
64032;DHT22;50278;47.796;11.968;2023-02-01T01:59:53;4.84;12.40
64032;DHT22;50278;47.796;11.968;2023-02-01T02:02:19;4.87;11.22
64032;DHT22;50278;47.796;11.968;2023-02-01T02:04:45;4.80;11.32
64032;DHT22;50278;47.796;11.968;2023-02-01T02:07:11;4.78;12.42
64032;DHT22;50278;47.796;11.968;2023-02-01T02:09:39;4.72;12.84
64032;DHT22;50278;47.796;11.968;2023-02-01T02:12:05;4.61;13.01
64032;DHT22;50278;47.796;11.968;2023-02-01T02:14:30;4.62;12.42
64032;DHT22;50278;47.796;11.968;2023-02-01T02:24:54;4.39;14.71
64032;DHT22;50278;47.796;11.968;2023-02-01T02:27:29;4.37;14.65
64032;DHT22;50278;47.796;11.968;2023-02-01T02:32:42;4.39;15.04
64032;DHT22;50278;47.796;11.968;2023-02-01T02:43:22;4.41;15.60
64032;DHT22;50278;47.796;11.968;2023-02-01T02:48:55;4.18;16.80
64032;DHT22;50278;47.796;11.968;2023-02-01T02:51:34;4.06;17.08
64032;DHT22;50278;47.796;11.968;2023-02-01T02:54:21;3.91;18.50
64032;DHT22;50278;47.796;11.968;2023-02-01T02:57:07;3.98;17.84
64032;DHT22;50278;47.796;11.968;2023-02-01T02:59:54;3.97;18.19
64032;DHT22;50278;47.796;11.968;2023-02-01T03:02:40;3.99;17.83
64032;DHT22;50278;47.796;11.968;2023-02-01T03:05:24;3.99;17.60
64032;DHT22;50278;47.796;11.968;2023-02-01T03:08:00;4.00;18.22
64032;DHT22;50278;47.796;11.968;2023-02-01T03:10:30;4.06;17.01
64032;DHT22;50278;47.796;11.968;2023-02-01T03:13:06;4.15;17.03
64032;DHT22;50278;47.796;11.968;2023-02-01T03:15:40;4.22;16.32
64032;DHT22;50278;47.796;11.968;2023-02-01T03:18:11;4.24;17.06
64032;DHT22;50278;47.796;11.968;2023-02-01T03:20:38;4.37;15.68
64032;DHT22;50278;47.796;11.968;2023-02-01T03:23:05;4.33;16.15
64032;DHT22;50278;47.796;11.968;2023-02-01T03:25:31;4.36;16.23
64032;DHT22;50278;47.796;11.968;2023-02-01T03:28:00;4.34;16.37
64032;DHT22;50278;47.796;11.968;2023-02-01T03:30:43;4.36;16.60
64032;DHT22;50278;47.796;11.968;2023-02-01T03:33:12;4.38;15.99
64032;DHT22;50278;47.796;11.968;2023-02-01T03:40:42;4.18;18.69
64032;DHT22;50278;47.796;11.968;2023-02-01T03:43:10;4.13;19.63
64032;DHT22;50278;47.796;11.968;2023-02-01T03:45:39;4.18;19.47
64032;DHT22;50278;47.796;11.968;2023-02-01T03:48:07;4.13;19.62
64032;DHT22;50278;47.796;11.968;2023-02-01T03:50:34;4.09;20.60
64032;DHT22;50278;47.796;11.968;2023-02-01T03:53:12;4.00;20.71
64032;DHT22;50278;47.796;11.968;2023-02-01T03:55:42;3.94;19.75
64032;DHT22;50278;47.796;11.968;2023-02-01T04:00:33;3.94;19.70
64032;DHT22;50278;47.796;11.968;2023-02-01T04:02:59;3.91;20.05
64032;DHT22;50278;47.796;11.968;2023-02-01T04:05:24;4.14;18.03
64032;DHT22;50278;47.796;11.968;2023-02-01T04:07:55;4.08;18.55
64032;DHT22;50278;47.796;11.968;2023-02-01T04:10:21;4.16;18.38
64032;DHT22;50278;47.796;11.968;2023-02-01T04:12:46;4.06;20.21
64032;DHT22;50278;47.796;11.968;2023-02-01T04:15:12;4.21;19.22
64032;DHT22;50278;47.796;11.968;2023-02-01T04:17:37;4.14;19.85
64032;DHT22;50278;47.796;11.968;2023-02-01T04:20:03;4.19;18.72
64032;DHT22;50278;47.796;11.968;2023-02-01T04:22:30;4.08;20.66
64032;DHT22;50278;47.796;11.968;2023-02-01T04:24:55;4.24;18.86
64032;DHT22;50278;47.796;11.968;2023-02-01T04:27:21;4.17;19.83
64032;DHT22;50278;47.796;11.968;2023-02-01T04:29:46;4.20;20.10
64032;DHT22;50278;47.796;11.968;2023-02-01T04:32:12;4.15;20.00
64032;DHT22;50278;47.796;11.968;2023-02-01T04:34:37;4.22;20.40
64032;DHT22;50278;47.796;11.968;2023-02-01T04:37:03;4.19;21.37
64032;DHT22;50278;47.796;11.968;2023-02-01T04:39:28;4.23;20.79
64032;DHT22;50278;47.796;11.968;2023-02-01T04:41:54;4.13;21.04
64032;DHT22;50278;47.796;11.968;2023-02-01T04:44:19;4.15;21.77
64032;DHT22;50278;47.796;11.968;2023-02-01T04:46:45;4.22;21.20
64032;DHT22;50278;47.796;11.968;2023-02-01T04:49:11;4.32;20.18
64032;DHT22;50278;47.796;11.968;2023-02-01T04:51:37;4.20;23.57
64032;DHT22;50278;47.796;11.968;2023-02-01T04:54:02;4.00;25.94
64032;DHT22;50278;47.796;11.968;2023-02-01T04:56:28;3.88;29.13
64032;DHT22;50278;47.796;11.968;2023-02-01T04:58:54;3.64;33.62
64032;DHT22;50278;47.796;11.968;2023-02-01T05:01:20;3.52;36.05
64032;DHT22;50278;47.796;11.968;2023-02-01T05:03:45;3.48;38.50
64032;DHT22;50278;47.796;11.968;2023-02-01T05:06:11;3.49;37.99
64032;DHT22;50278;47.796;11.968;2023-02-01T05:08:36;3.53;37.21
64032;DHT22;50278;47.796;11.968;2023-02-01T05:11:02;3.54;37.59
64032;DHT22;50278;47.796;11.968;2023-02-01T05:13:28;3.62;35.41
64032;DHT22;50278;47.796;11.968;2023-02-01T05:16:19;3.69;35.32
64032;DHT22;50278;47.796;11.968;2023-02-01T05:18:56;3.68;34.64
64032;DHT22;50278;47.796;11.968;2023-02-01T05:21:22;3.82;33.35
64032;DHT22;50278;47.796;11.968;2023-02-01T05:23:48;3.83;32.25
64032;DHT22;50278;47.796;11.968;2023-02-01T05:26:33;4.02;30.48
64032;DHT22;50278;47.796;11.968;2023-02-01T05:29:00;3.98;30.85
64032;DHT22;50278;47.796;11.968;2023-02-01T05:31:26;3.99;31.07
64032;DHT22;50278;47.796;11.968;2023-02-01T05:33:52;3.97;31.24
64032;DHT22;50278;47.796;11.968;2023-02-01T05:36:18;4.07;30.49
64032;DHT22;50278;47.796;11.968;2023-02-01T05:38:45;4.28;28.00
64032;DHT22;50278;47.796;11.968;2023-02-01T05:41:12;4.27;28.37
64032;DHT22;50278;47.796;11.968;2023-02-01T05:43:39;4.24;28.97
64032;DHT22;50278;47.796;11.968;2023-02-01T05:46:05;4.21;29.00
64032;DHT22;50278;47.796;11.968;2023-02-01T05:48:30;4.24;27.49
64032;DHT22;50278;47.796;11.968;2023-02-01T05:50:56;4.45;26.19
64032;DHT22;50278;47.796;11.968;2023-02-01T05:53:21;4.32;27.44
64032;DHT22;50278;47.796;11.968;2023-02-01T05:55:47;4.52;25.48
64032;DHT22;50278;47.796;11.968;2023-02-01T05:58:12;4.53;24.43
64032;DHT22;50278;47.796;11.968;2023-02-01T06:00:38;4.59;24.00
64032;DHT22;50278;47.796;11.968;2023-02-01T06:03:03;4.67;23.94
64032;DHT22;50278;47.796;11.968;2023-02-01T06:05:29;4.50;25.52
64032;DHT22;50278;47.796;11.968;2023-02-01T06:07:54;4.64;24.04
64032;DHT22;50278;47.796;11.968;2023-02-01T06:10:20;4.64;25.01
64032;DHT22;50278;47.796;11.968;2023-02-01T06:12:45;4.65;25.51
64032;DHT22;50278;47.796;11.968;2023-02-01T06:15:12;4.92;24.43
64032;DHT22;50278;47.796;11.968;2023-02-01T06:17:37;4.79;26.21
64032;DHT22;50278;47.796;11.968;2023-02-01T06:20:04;4.93;25.49
64032;DHT22;50278;47.796;11.968;2023-02-01T06:22:32;4.88;27.10
64032;DHT22;50278;47.796;11.968;2023-02-01T06:24:57;4.95;26.79
64032;DHT22;50278;47.796;11.968;2023-02-01T06:27:24;4.84;28.06
64032;DHT22;50278;47.796;11.968;2023-02-01T06:29:50;4.80;28.63
64032;DHT22;50278;47.796;11.968;2023-02-01T06:32:18;4.80;29.24
64032;DHT22;50278;47.796;11.968;2023-02-01T06:34:44;4.83;28.81
64032;DHT22;50278;47.796;11.968;2023-02-01T06:37:09;4.82;29.20
64032;DHT22;50278;47.796;11.968;2023-02-01T06:39:36;4.82;29.29
64032;DHT22;50278;47.796;11.968;2023-02-01T06:42:02;4.73;30.69
64032;DHT22;50278;47.796;11.968;2023-02-01T06:44:27;4.76;29.82
64032;DHT22;50278;47.796;11.968;2023-02-01T06:46:53;4.62;31.77
64032;DHT22;50278;47.796;11.968;2023-02-01T06:49:20;4.74;30.68
64032;DHT22;50278;47.796;11.968;2023-02-01T06:51:45;4.63;31.30
64032;DHT22;50278;47.796;11.968;2023-02-01T06:54:10;4.63;31.59
64032;DHT22;50278;47.796;11.968;2023-02-01T06:56:36;4.61;31.77
64032;DHT22;50278;47.796;11.968;2023-02-01T06:59:03;4.56;32.58
64032;DHT22;50278;47.796;11.968;2023-02-01T07:01:29;4.64;31.48
64032;DHT22;50278;47.796;11.968;2023-02-01T07:03:54;4.64;31.77
64032;DHT22;50278;47.796;11.968;2023-02-01T07:06:19;4.51;32.85
64032;DHT22;50278;47.796;11.968;2023-02-01T07:08:45;4.62;31.29
64032;DHT22;50278;47.796;11.968;2023-02-01T07:11:11;4.59;32.01
64032;DHT22;50278;47.796;11.968;2023-02-01T07:13:37;4.53;31.96
64032;DHT22;50278;47.796;11.968;2023-02-01T07:16:03;4.56;32.05
64032;DHT22;50278;47.796;11.968;2023-02-01T07:18:29;4.54;31.86
64032;DHT22;50278;47.796;11.968;2023-02-01T07:20:55;4.64;31.25
64032;DHT22;50278;47.796;11.968;2023-02-01T07:23:21;4.58;32.12
64032;DHT22;50278;47.796;11.968;2023-02-01T07:25:47;4.66;31.52
64032;DHT22;50278;47.796;11.968;2023-02-01T07:28:12;4.63;31.53
64032;DHT22;50278;47.796;11.968;2023-02-01T07:30:37;4.72;31.12
64032;DHT22;50278;47.796;11.968;2023-02-01T07:33:03;4.64;31.77
64032;DHT22;50278;47.796;11.968;2023-02-01T07:35:28;4.68;31.03
64032;DHT22;50278;47.796;11.968;2023-02-01T07:37:54;4.74;30.07
64032;DHT22;50278;47.796;11.968;2023-02-01T07:40:19;4.68;31.18
64032;DHT22;50278;47.796;11.968;2023-02-01T07:42:50;4.69;30.99
64032;DHT22;50278;47.796;11.968;2023-02-01T07:45:15;4.68;30.67
64032;DHT22;50278;47.796;11.968;2023-02-01T07:47:41;4.73;30.19
64032;DHT22;50278;47.796;11.968;2023-02-01T07:50:06;4.67;30.68
64032;DHT22;50278;47.796;11.968;2023-02-01T07:52:32;4.67;31.41
64032;DHT22;50278;47.796;11.968;2023-02-01T07:54:57;4.71;30.73
64032;DHT22;50278;47.796;11.968;2023-02-01T07:57:23;4.62;31.64
64032;DHT22;50278;47.796;11.968;2023-02-01T07:59:48;4.67;30.57
64032;DHT22;50278;47.796;11.968;2023-02-01T08:02:37;4.72;29.79
64032;DHT22;50278;47.796;11.968;2023-02-01T08:05:03;4.66;30.67
64032;DHT22;50278;47.796;11.968;2023-02-01T08:07:30;4.73;29.74
64032;DHT22;50278;47.796;11.968;2023-02-01T08:09:56;4.65;30.35
64032;DHT22;50278;47.796;11.968;2023-02-01T08:12:21;4.63;30.10
64032;DHT22;50278;47.796;11.968;2023-02-01T08:14:46;4.62;30.66
64032;DHT22;50278;47.796;11.968;2023-02-01T08:17:12;4.62;30.62
64032;DHT22;50278;47.796;11.968;2023-02-01T08:19:37;4.64;30.83
64032;DHT22;50278;47.796;11.968;2023-02-01T08:22:03;4.69;29.97
64032;DHT22;50278;47.796;11.968;2023-02-01T08:24:32;4.79;30.06
64032;DHT22;50278;47.796;11.968;2023-02-01T08:26:57;4.88;28.96
64032;DHT22;50278;47.796;11.968;2023-02-01T08:29:23;4.95;28.27
64032;DHT22;50278;47.796;11.968;2023-02-01T08:31:48;4.94;27.87
64032;DHT22;50278;47.796;11.968;2023-02-01T08:34:14;5.03;27.42
64032;DHT22;50278;47.796;11.968;2023-02-01T08:36:39;4.96;26.88
64032;DHT22;50278;47.796;11.968;2023-02-01T08:39:05;5.02;27.24
64032;DHT22;50278;47.796;11.968;2023-02-01T08:41:34;5.12;25.35
64032;DHT22;50278;47.796;11.968;2023-02-01T08:43:59;5.11;26.42
64032;DHT22;50278;47.796;11.968;2023-02-01T08:46:25;5.13;25.81
64032;DHT22;50278;47.796;11.968;2023-02-01T08:48:51;5.20;25.52
64032;DHT22;50278;47.796;11.968;2023-02-01T08:51:17;5.27;24.30
64032;DHT22;50278;47.796;11.968;2023-02-01T08:53:43;5.28;24.55
64032;DHT22;50278;47.796;11.968;2023-02-01T08:56:13;5.33;25.30
64032;DHT22;50278;47.796;11.968;2023-02-01T08:58:38;5.36;24.44
64032;DHT22;50278;47.796;11.968;2023-02-01T09:01:04;5.30;25.11
64032;DHT22;50278;47.796;11.968;2023-02-01T09:03:30;5.38;24.24
64032;DHT22;50278;47.796;11.968;2023-02-01T09:06:00;5.38;24.26
64032;DHT22;50278;47.796;11.968;2023-02-01T09:08:25;5.35;25.05
64032;DHT22;50278;47.796;11.968;2023-02-01T09:10:51;5.36;24.87
64032;DHT22;50278;47.796;11.968;2023-02-01T09:13:16;5.43;24.96
64032;DHT22;50278;47.796;11.968;2023-02-01T09:15:42;5.57;23.84
64032;DHT22;50278;47.796;11.968;2023-02-01T09:18:07;5.65;23.95
64032;DHT22;50278;47.796;11.968;2023-02-01T09:20:32;5.65;24.58
64032;DHT22;50278;47.796;11.968;2023-02-01T09:22:58;5.68;24.27
64032;DHT22;50278;47.796;11.968;2023-02-01T09:25:23;5.70;23.91
64032;DHT22;50278;47.796;11.968;2023-02-01T09:27:49;5.76;23.25
64032;DHT22;50278;47.796;11.968;2023-02-01T09:30:14;5.70;24.56
64032;DHT22;50278;47.796;11.968;2023-02-01T09:32:40;5.80;23.37
64032;DHT22;50278;47.796;11.968;2023-02-01T09:35:05;5.80;23.10
64032;DHT22;50278;47.796;11.968;2023-02-01T09:37:31;5.80;23.53
64032;DHT22;50278;47.796;11.968;2023-02-01T09:39:56;5.89;22.39
64032;DHT22;50278;47.796;11.968;2023-02-01T09:42:26;5.80;24.65
64032;DHT22;50278;47.796;11.968;2023-02-01T09:47:24;5.90;23.99
64032;DHT22;50278;47.796;11.968;2023-02-01T09:49:59;5.95;23.51
64032;DHT22;50278;47.796;11.968;2023-02-01T09:52:27;6.05;22.99
64032;DHT22;50278;47.796;11.968;2023-02-01T09:54:58;6.05;22.89
64032;DHT22;50278;47.796;11.968;2023-02-01T10:00:15;6.26;22.90
64032;DHT22;50278;47.796;11.968;2023-02-01T10:02:43;6.33;22.02
64032;DHT22;50278;47.796;11.968;2023-02-01T10:05:12;6.24;21.51
64032;DHT22;50278;47.796;11.968;2023-02-01T10:08:01;6.52;21.24
64032;DHT22;50278;47.796;11.968;2023-02-01T10:10:31;6.21;22.16
64032;DHT22;50278;47.796;11.968;2023-02-01T10:16:06;6.23;22.21
64032;DHT22;50278;47.796;11.968;2023-02-01T10:26:24;6.20;23.04
64032;DHT22;50278;47.796;11.968;2023-02-01T10:28:51;6.08;22.85
64032;DHT22;50278;47.796;11.968;2023-02-01T10:31:17;6.19;23.79
64032;DHT22;50278;47.796;11.968;2023-02-01T10:33:44;6.21;22.85
64032;DHT22;50278;47.796;11.968;2023-02-01T10:36:15;6.13;23.98
64032;DHT22;50278;47.796;11.968;2023-02-01T10:38:42;6.13;24.70
64032;DHT22;50278;47.796;11.968;2023-02-01T10:41:11;6.04;23.55
64032;DHT22;50278;47.796;11.968;2023-02-01T10:43:37;6.08;23.60
64032;DHT22;50278;47.796;11.968;2023-02-01T10:46:04;6.15;24.11
64032;DHT22;50278;47.796;11.968;2023-02-01T10:48:30;6.04;24.10
64032;DHT22;50278;47.796;11.968;2023-02-01T10:50:58;6.30;23.49
64032;DHT22;50278;47.796;11.968;2023-02-01T10:55:50;6.34;23.13
64032;DHT22;50278;47.796;11.968;2023-02-01T10:58:17;6.49;23.18
64032;DHT22;50278;47.796;11.968;2023-02-01T11:00:53;6.49;22.93
64032;DHT22;50278;47.796;11.968;2023-02-01T11:03:31;6.48;22.63
64032;DHT22;50278;47.796;11.968;2023-02-01T11:05:57;6.29;24.36
64032;DHT22;50278;47.796;11.968;2023-02-01T11:08:22;6.39;22.38
64032;DHT22;50278;47.796;11.968;2023-02-01T11:10:49;6.54;22.49
64032;DHT22;50278;47.796;11.968;2023-02-01T11:13:21;6.39;22.68
64032;DHT22;50278;47.796;11.968;2023-02-01T11:15:54;6.43;22.59
64032;DHT22;50278;47.796;11.968;2023-02-01T11:18:20;6.38;22.15
64032;DHT22;50278;47.796;11.968;2023-02-01T11:20:50;6.41;22.43
64032;DHT22;50278;47.796;11.968;2023-02-01T11:23:21;6.37;21.69
64032;DHT22;50278;47.796;11.968;2023-02-01T11:25:49;6.36;21.88
64032;DHT22;50278;47.796;11.968;2023-02-01T11:28:16;6.40;22.09
64032;DHT22;50278;47.796;11.968;2023-02-01T11:30:42;6.53;21.91
64032;DHT22;50278;47.796;11.968;2023-02-01T11:33:13;6.37;21.14
64032;DHT22;50278;47.796;11.968;2023-02-01T11:35:40;6.61;20.93
64032;DHT22;50278;47.796;11.968;2023-02-01T11:38:17;6.55;20.48
64032;DHT22;50278;47.796;11.968;2023-02-01T11:40:44;6.54;19.79
64032;DHT22;50278;47.796;11.968;2023-02-01T11:45:41;6.46;20.71
64032;DHT22;50278;47.796;11.968;2023-02-01T11:48:18;6.66;18.64
64032;DHT22;50278;47.796;11.968;2023-02-01T11:50:49;6.42;20.89
64032;DHT22;50278;47.796;11.968;2023-02-01T11:56:04;6.63;18.93
64032;DHT22;50278;47.796;11.968;2023-02-01T11:58:56;6.45;19.60
64032;DHT22;50278;47.796;11.968;2023-02-01T12:03:59;6.67;18.50
64032;DHT22;50278;47.796;11.968;2023-02-01T12:11:57;6.51;18.13
64032;DHT22;50278;47.796;11.968;2023-02-01T12:17:15;6.70;15.68
64032;DHT22;50278;47.796;11.968;2023-02-01T12:22:14;6.35;18.98
64032;DHT22;50278;47.796;11.968;2023-02-01T12:32:11;6.41;17.75
64032;DHT22;50278;47.796;11.968;2023-02-01T12:42:23;5.87;18.38
64032;DHT22;50278;47.796;11.968;2023-02-01T12:44:56;6.00;19.77
64032;DHT22;50278;47.796;11.968;2023-02-01T12:47:30;6.01;19.76
64032;DHT22;50278;47.796;11.968;2023-02-01T12:50:00;5.93;17.92
64032;DHT22;50278;47.796;11.968;2023-02-01T12:54:58;5.96;18.48
64032;DHT22;50278;47.796;11.968;2023-02-01T12:57:32;5.97;18.94
64032;DHT22;50278;47.796;11.968;2023-02-01T13:02:34;5.90;17.76
64032;DHT22;50278;47.796;11.968;2023-02-01T13:05:05;6.16;16.98
64032;DHT22;50278;47.796;11.968;2023-02-01T13:07:38;5.93;18.42
64032;DHT22;50278;47.796;11.968;2023-02-01T13:18:34;5.90;18.61
64032;DHT22;50278;47.796;11.968;2023-02-01T13:21:02;5.87;19.67
64032;DHT22;50278;47.796;11.968;2023-02-01T13:23:30;5.90;19.06
64032;DHT22;50278;47.796;11.968;2023-02-01T13:25:57;5.92;19.31
64032;DHT22;50278;47.796;11.968;2023-02-01T13:28:30;5.93;19.54
64032;DHT22;50278;47.796;11.968;2023-02-01T13:43:49;6.08;19.88
64032;DHT22;50278;47.796;11.968;2023-02-01T13:46:16;6.17;19.09
64032;DHT22;50278;47.796;11.968;2023-02-01T13:48:52;6.02;19.92
64032;DHT22;50278;47.796;11.968;2023-02-01T13:51:31;5.93;20.25
64032;DHT22;50278;47.796;11.968;2023-02-01T13:53:57;5.93;20.91
64032;DHT22;50278;47.796;11.968;2023-02-01T13:56:23;6.04;20.25
64032;DHT22;50278;47.796;11.968;2023-02-01T13:58:49;5.90;21.09
64032;DHT22;50278;47.796;11.968;2023-02-01T14:03:54;5.90;21.08
64032;DHT22;50278;47.796;11.968;2023-02-01T14:11:31;5.97;21.43
64032;DHT22;50278;47.796;11.968;2023-02-01T14:13:59;5.80;21.83
64032;DHT22;50278;47.796;11.968;2023-02-01T14:16:31;5.87;20.78
64032;DHT22;50278;47.796;11.968;2023-02-01T14:18:58;5.79;22.50
64032;DHT22;50278;47.796;11.968;2023-02-01T14:21:34;5.86;21.05
64032;DHT22;50278;47.796;11.968;2023-02-01T14:28:55;5.82;21.02
64032;DHT22;50278;47.796;11.968;2023-02-01T14:31:32;5.84;20.82
64032;DHT22;50278;47.796;11.968;2023-02-01T14:33:59;5.81;21.02
64032;DHT22;50278;47.796;11.968;2023-02-01T14:36:25;5.74;21.40
64032;DHT22;50278;47.796;11.968;2023-02-01T14:38:51;5.75;20.96
64032;DHT22;50278;47.796;11.968;2023-02-01T14:41:25;5.72;20.63
64032;DHT22;50278;47.796;11.968;2023-02-01T14:44:12;5.79;19.73
64032;DHT22;50278;47.796;11.968;2023-02-01T14:49:20;5.85;18.27
64032;DHT22;50278;47.796;11.968;2023-02-01T14:51:46;5.81;18.61
64032;DHT22;50278;47.796;11.968;2023-02-01T14:54:12;5.79;18.86
64032;DHT22;50278;47.796;11.968;2023-02-01T14:56:39;5.75;18.99
64032;DHT22;50278;47.796;11.968;2023-02-01T14:59:09;5.67;19.97
64032;DHT22;50278;47.796;11.968;2023-02-01T15:01:38;5.68;19.18
64032;DHT22;50278;47.796;11.968;2023-02-01T15:04:11;5.56;19.99
64032;DHT22;50278;47.796;11.968;2023-02-01T15:06:40;5.68;19.47
64032;DHT22;50278;47.796;11.968;2023-02-01T15:09:16;5.57;19.73
64032;DHT22;50278;47.796;11.968;2023-02-01T15:11:59;5.63;19.30
64032;DHT22;50278;47.796;11.968;2023-02-01T15:14:29;5.62;19.78
64032;DHT22;50278;47.796;11.968;2023-02-01T15:16:55;5.56;19.51
64032;DHT22;50278;47.796;11.968;2023-02-01T15:19:21;5.51;20.40
64032;DHT22;50278;47.796;11.968;2023-02-01T15:21:48;5.47;19.77
64032;DHT22;50278;47.796;11.968;2023-02-01T15:24:18;5.45;20.66
64032;DHT22;50278;47.796;11.968;2023-02-01T15:26:44;5.56;18.99
64032;DHT22;50278;47.796;11.968;2023-02-01T15:29:10;5.49;20.04
64032;DHT22;50278;47.796;11.968;2023-02-01T15:31:42;5.49;19.66
64032;DHT22;50278;47.796;11.968;2023-02-01T15:34:08;5.43;19.83
64032;DHT22;50278;47.796;11.968;2023-02-01T15:36:33;5.45;19.83
64032;DHT22;50278;47.796;11.968;2023-02-01T15:41:49;5.39;20.16
64032;DHT22;50278;47.796;11.968;2023-02-01T15:46:47;5.48;20.32
64032;DHT22;50278;47.796;11.968;2023-02-01T15:51:43;5.36;20.97
64032;DHT22;50278;47.796;11.968;2023-02-01T15:54:13;5.37;20.56
64032;DHT22;50278;47.796;11.968;2023-02-01T15:56:44;5.33;21.21
64032;DHT22;50278;47.796;11.968;2023-02-01T15:59:17;5.27;20.99
64032;DHT22;50278;47.796;11.968;2023-02-01T16:01:43;5.31;21.60
64032;DHT22;50278;47.796;11.968;2023-02-01T16:06:48;5.24;22.04
64032;DHT22;50278;47.796;11.968;2023-02-01T16:09:14;5.17;21.97
64032;DHT22;50278;47.796;11.968;2023-02-01T16:11:52;5.35;20.95
64032;DHT22;50278;47.796;11.968;2023-02-01T16:14:18;5.27;21.00
64032;DHT22;50278;47.796;11.968;2023-02-01T16:16:44;5.28;21.58
64032;DHT22;50278;47.796;11.968;2023-02-01T16:19:09;5.23;22.11
64032;DHT22;50278;47.796;11.968;2023-02-01T16:21:34;5.23;22.24
64032;DHT22;50278;47.796;11.968;2023-02-01T16:24:00;5.21;22.34
64032;DHT22;50278;47.796;11.968;2023-02-01T16:26:29;5.21;22.52
64032;DHT22;50278;47.796;11.968;2023-02-01T16:28:54;5.18;23.17
64032;DHT22;50278;47.796;11.968;2023-02-01T16:31:21;5.12;22.74
64032;DHT22;50278;47.796;11.968;2023-02-01T16:33:49;5.12;23.14
64032;DHT22;50278;47.796;11.968;2023-02-01T16:36:15;5.05;23.72
64032;DHT22;50278;47.796;11.968;2023-02-01T16:38:40;5.10;22.67
64032;DHT22;50278;47.796;11.968;2023-02-01T16:41:06;5.06;23.02
64032;DHT22;50278;47.796;11.968;2023-02-01T16:43:33;5.07;22.21
64032;DHT22;50278;47.796;11.968;2023-02-01T16:46:00;5.03;23.05
64032;DHT22;50278;47.796;11.968;2023-02-01T16:48:28;4.95;23.75
64032;DHT22;50278;47.796;11.968;2023-02-01T16:50:56;4.91;23.54
64032;DHT22;50278;47.796;11.968;2023-02-01T16:53:22;4.91;23.69
64032;DHT22;50278;47.796;11.968;2023-02-01T16:55:48;4.86;23.91
64032;DHT22;50278;47.796;11.968;2023-02-01T16:58:15;4.92;23.31
64032;DHT22;50278;47.796;11.968;2023-02-01T17:00:41;4.91;22.87
64032;DHT22;50278;47.796;11.968;2023-02-01T17:03:06;4.84;23.51
64032;DHT22;50278;47.796;11.968;2023-02-01T17:05:32;4.83;23.40
64032;DHT22;50278;47.796;11.968;2023-02-01T17:07:59;4.88;23.29
64032;DHT22;50278;47.796;11.968;2023-02-01T17:10:29;4.77;23.94
64032;DHT22;50278;47.796;11.968;2023-02-01T17:12:55;4.84;23.21
64032;DHT22;50278;47.796;11.968;2023-02-01T17:15:21;4.84;23.30
64032;DHT22;50278;47.796;11.968;2023-02-01T17:17:47;4.74;23.98
64032;DHT22;50278;47.796;11.968;2023-02-01T17:20:18;4.77;23.95
64032;DHT22;50278;47.796;11.968;2023-02-01T17:22:44;4.77;23.69
64032;DHT22;50278;47.796;11.968;2023-02-01T17:25:14;4.73;23.86
64032;DHT22;50278;47.796;11.968;2023-02-01T17:27:39;4.75;24.23
64032;DHT22;50278;47.796;11.968;2023-02-01T17:30:06;4.79;23.30
64032;DHT22;50278;47.796;11.968;2023-02-01T17:32:32;4.68;24.43
64032;DHT22;50278;47.796;11.968;2023-02-01T17:34:58;4.71;23.82
64032;DHT22;50278;47.796;11.968;2023-02-01T17:37:29;4.79;22.88
64032;DHT22;50278;47.796;11.968;2023-02-01T17:39:55;4.80;22.49
64032;DHT22;50278;47.796;11.968;2023-02-01T17:42:20;4.71;23.48
64032;DHT22;50278;47.796;11.968;2023-02-01T17:44:46;4.73;22.60
64032;DHT22;50278;47.796;11.968;2023-02-01T17:47:11;4.77;22.29
64032;DHT22;50278;47.796;11.968;2023-02-01T17:49:37;4.78;22.20
64032;DHT22;50278;47.796;11.968;2023-02-01T17:52:03;4.72;22.77